createdAt,value
2017-12-05T00:00:52.653Z,7.60
2017-12-05T00:03:19.560Z,7.70
2017-12-05T00:05:46.479Z,7.70
2017-12-05T00:08:13.393Z,7.80
2017-12-05T00:10:40.328Z,7.90
2017-12-05T00:13:07.253Z,7.90
2017-12-05T00:15:34.180Z,8.00
2017-12-05T00:18:01.092Z,8.10
2017-12-05T00:20:28.037Z,8.10
2017-12-05T00:22:54.950Z,8.10
2017-12-05T00:25:21.889Z,8.10
2017-12-05T00:27:48.801Z,8.10
2017-12-05T00:30:15.729Z,8.10
2017-12-05T00:32:43.410Z,8.20
2017-12-05T00:35:10.336Z,8.20
2017-12-05T00:37:38.030Z,8.20
2017-12-05T00:40:04.987Z,8.20
2017-12-05T00:42:31.898Z,8.20
2017-12-05T00:44:58.816Z,8.30
2017-12-05T00:47:26.703Z,8.20
2017-12-05T00:49:54.366Z,8.20
2017-12-05T00:52:22.047Z,8.20
2017-12-05T00:54:49.870Z,8.10
2017-12-05T00:57:16.785Z,8.20
2017-12-05T00:59:44.679Z,8.20
2017-12-05T01:02:11.594Z,8.20
2017-12-05T01:04:38.522Z,8.20
2017-12-05T01:07:05.452Z,8.20
2017-12-05T01:09:33.296Z,8.20
2017-12-05T01:12:00.993Z,8.20
2017-12-05T01:14:27.905Z,8.10
2017-12-05T01:16:55.601Z,8.10
2017-12-05T01:19:22.513Z,8.20
2017-12-05T01:21:50.216Z,8.10
2017-12-05T01:24:18.146Z,8.10
2017-12-05T01:26:45.829Z,8.10
2017-12-05T01:29:12.773Z,8.10
2017-12-05T01:31:39.693Z,8.10
2017-12-05T01:34:07.379Z,8.10
2017-12-05T01:36:34.300Z,8.10
2017-12-05T01:39:01.252Z,8.10
2017-12-05T01:41:28.930Z,8.00
2017-12-05T01:43:55.864Z,7.80
2017-12-05T01:46:23.536Z,8.00
2017-12-05T01:48:50.479Z,8.00
2017-12-05T01:51:17.397Z,8.00
2017-12-05T01:53:45.097Z,7.90
2017-12-05T01:56:13.962Z,8.00
2017-12-05T01:58:41.656Z,7.80
2017-12-05T02:01:08.577Z,7.80
2017-12-05T02:03:35.519Z,7.80
2017-12-05T02:06:02.444Z,7.80
2017-12-05T02:08:30.136Z,7.90
2017-12-05T02:10:57.057Z,8.10
2017-12-05T02:13:24.748Z,7.90
2017-12-05T02:15:51.664Z,7.90
2017-12-05T02:18:19.356Z,7.90
2017-12-05T02:20:46.281Z,7.90
2017-12-05T02:23:13.213Z,7.90
2017-12-05T02:25:40.896Z,7.90
2017-12-05T02:28:07.816Z,8.00
2017-12-05T02:30:35.487Z,7.80
2017-12-05T02:33:03.180Z,7.80
2017-12-05T02:35:30.102Z,7.80
2017-12-05T02:37:57.025Z,7.90
2017-12-05T02:40:36.602Z,7.90
2017-12-05T02:43:03.537Z,7.90
2017-12-05T02:45:30.453Z,7.90
2017-12-05T02:47:58.137Z,7.90
2017-12-05T02:50:25.068Z,7.90
2017-12-05T02:52:52.739Z,7.90
2017-12-05T02:55:19.670Z,7.90
2017-12-05T02:57:48.356Z,7.90
2017-12-05T03:00:16.054Z,7.80
2017-12-05T03:02:43.989Z,7.90
2017-12-05T03:05:12.697Z,7.80
2017-12-05T03:07:39.614Z,7.80
2017-12-05T03:10:07.305Z,7.90
2017-12-05T03:12:35.149Z,7.90
2017-12-05T03:15:02.836Z,7.90
2017-12-05T03:17:29.741Z,7.90
2017-12-05T03:19:56.669Z,7.90
2017-12-05T03:22:23.601Z,7.80
2017-12-05T03:24:50.541Z,7.80
2017-12-05T03:27:17.465Z,7.80
2017-12-05T03:29:44.399Z,7.80
2017-12-05T03:32:11.312Z,7.90
2017-12-05T03:34:39.008Z,7.90
2017-12-05T03:37:05.915Z,7.80
2017-12-05T03:39:32.842Z,7.90
2017-12-05T03:41:59.760Z,7.80
2017-12-05T03:44:27.701Z,7.80
2017-12-05T03:46:54.618Z,7.90
2017-12-05T03:49:22.315Z,7.90
2017-12-05T03:51:49.221Z,7.90
2017-12-05T03:54:16.149Z,8.00
2017-12-05T03:56:43.057Z,8.00
2017-12-05T03:59:10.017Z,8.00
2017-12-05T04:01:36.944Z,8.00
2017-12-05T04:04:03.865Z,8.00
2017-12-05T04:06:31.716Z,8.10
2017-12-05T04:08:59.427Z,8.00
2017-12-05T04:11:26.345Z,8.00
2017-12-05T04:13:53.256Z,8.10
2017-12-05T04:16:20.220Z,8.10
2017-12-05T04:18:48.365Z,8.10
2017-12-05T04:21:15.291Z,8.10
2017-12-05T04:23:42.227Z,8.10
2017-12-05T04:26:09.156Z,8.10
2017-12-05T04:28:36.073Z,8.00
2017-12-05T04:31:04.765Z,8.10
2017-12-05T04:33:31.693Z,8.10
2017-12-05T04:35:59.393Z,8.10
2017-12-05T04:38:26.297Z,8.00
2017-12-05T04:40:54.003Z,7.90
2017-12-05T04:43:20.911Z,7.90
2017-12-05T04:45:48.594Z,7.90
2017-12-05T04:48:16.445Z,7.90
2017-12-05T04:50:44.124Z,8.00
2017-12-05T04:53:11.045Z,7.90
2017-12-05T04:55:38.720Z,8.00
2017-12-05T04:58:05.657Z,8.00
2017-12-05T05:00:33.337Z,7.90
2017-12-05T05:03:00.258Z,7.90
2017-12-05T05:05:28.939Z,7.80
2017-12-05T05:07:56.634Z,7.70
2017-12-05T05:10:23.545Z,7.70
2017-12-05T05:12:52.298Z,7.80
2017-12-05T05:15:19.209Z,7.80
2017-12-05T05:17:46.138Z,7.80
2017-12-05T05:20:13.054Z,7.80
2017-12-05T05:22:39.985Z,7.90
2017-12-05T05:25:06.912Z,7.90
2017-12-05T05:27:33.832Z,8.00
2017-12-05T05:30:00.740Z,8.00
2017-12-05T05:32:28.433Z,8.10
2017-12-05T05:34:55.401Z,8.00
2017-12-05T05:37:22.369Z,8.10
2017-12-05T05:39:51.288Z,8.10
2017-12-05T05:42:19.042Z,8.00
2017-12-05T05:44:45.960Z,8.10
2017-12-05T05:47:12.904Z,8.00
2017-12-05T05:49:39.816Z,8.00
2017-12-05T05:52:06.736Z,8.00
2017-12-05T05:54:34.420Z,7.90
2017-12-05T05:57:01.328Z,7.90
2017-12-05T05:59:30.022Z,8.00
2017-12-05T06:01:57.692Z,7.90
2017-12-05T06:04:24.621Z,7.80
2017-12-05T06:06:52.300Z,7.90
2017-12-05T06:09:19.228Z,7.90
2017-12-05T06:11:46.904Z,7.90
2017-12-05T06:14:13.839Z,7.80
2017-12-05T06:16:41.511Z,7.80
2017-12-05T06:19:09.236Z,7.80
2017-12-05T06:21:36.140Z,7.80
2017-12-05T06:24:03.067Z,7.80
2017-12-05T06:26:30.884Z,7.80
2017-12-05T06:28:57.883Z,7.90
2017-12-05T06:31:24.751Z,7.80
2017-12-05T06:33:51.659Z,7.80
2017-12-05T06:36:18.583Z,7.90
2017-12-05T06:38:45.507Z,7.90
2017-12-05T06:41:12.416Z,7.70
2017-12-05T06:43:39.319Z,7.70
2017-12-05T06:46:07.003Z,7.60
2017-12-05T06:48:33.952Z,7.50
2017-12-05T06:51:00.929Z,7.70
2017-12-05T06:53:27.833Z,7.70
2017-12-05T06:55:54.757Z,7.60
2017-12-05T06:58:24.372Z,7.70
2017-12-05T07:00:52.081Z,7.70
2017-12-05T07:03:18.993Z,7.70
2017-12-05T07:05:47.892Z,7.70
2017-12-05T07:08:14.796Z,7.70
2017-12-05T07:10:41.716Z,7.60
2017-12-05T07:13:08.620Z,7.60
2017-12-05T07:15:35.550Z,7.60
2017-12-05T07:18:03.429Z,7.70
2017-12-05T07:20:30.369Z,7.70
2017-12-05T07:22:58.037Z,7.80
2017-12-05T07:25:24.961Z,8.00
2017-12-05T07:27:53.650Z,7.70
2017-12-05T07:30:23.269Z,7.70
2017-12-05T07:32:52.158Z,7.70
2017-12-05T07:35:19.114Z,7.70
2017-12-05T07:37:49.771Z,7.70
2017-12-05T07:40:16.702Z,7.70
2017-12-05T07:42:47.355Z,7.70
2017-12-05T07:45:14.377Z,7.70
2017-12-05T07:47:41.297Z,7.80
2017-12-05T07:50:11.217Z,7.80
2017-12-05T07:52:40.050Z,7.80
2017-12-05T07:55:06.978Z,7.80
2017-12-05T07:57:34.904Z,7.80
2017-12-05T08:00:04.794Z,7.90
2017-12-05T08:02:31.887Z,8.00
2017-12-05T08:04:59.735Z,7.90
2017-12-05T08:07:27.483Z,8.00
2017-12-05T08:09:55.845Z,8.00
2017-12-05T08:12:23.746Z,8.00
2017-12-05T08:14:51.660Z,8.10
2017-12-05T08:17:19.503Z,8.10
2017-12-05T08:19:48.386Z,8.10
2017-12-05T08:22:15.351Z,8.00
2017-12-05T08:24:42.567Z,7.90
2017-12-05T08:27:09.548Z,7.70
2017-12-05T08:29:36.469Z,7.70
2017-12-05T08:32:03.405Z,7.70
2017-12-05T08:34:31.073Z,7.60
2017-12-05T08:36:58.937Z,7.60
2017-12-05T08:39:25.843Z,7.60
2017-12-05T08:41:52.778Z,7.60
2017-12-05T08:44:19.726Z,7.60
2017-12-05T08:46:46.650Z,7.50
2017-12-05T08:49:13.576Z,7.60
2017-12-05T08:51:42.453Z,7.60
2017-12-05T08:54:09.361Z,7.60
2017-12-05T08:56:36.293Z,7.70
2017-12-05T08:59:03.200Z,7.60
2017-12-05T09:01:31.106Z,7.80
2017-12-05T09:03:58.009Z,7.80
2017-12-05T09:06:24.944Z,7.80
2017-12-05T09:08:51.869Z,7.90
2017-12-05T09:11:18.784Z,7.90
2017-12-05T09:13:45.713Z,8.00
2017-12-05T09:16:14.393Z,8.10
2017-12-05T09:18:42.088Z,8.10
2017-12-05T09:21:09.002Z,8.20
2017-12-05T09:23:36.694Z,8.30
2017-12-05T09:26:03.613Z,8.10
2017-12-05T09:28:31.300Z,8.30
2017-12-05T09:30:58.213Z,8.30
2017-12-05T09:33:25.920Z,8.30
2017-12-05T09:35:53.860Z,8.30
2017-12-05T09:38:20.788Z,8.30
2017-12-05T09:40:49.474Z,8.10
2017-12-05T09:43:17.163Z,8.20
2017-12-05T09:45:44.077Z,8.20
2017-12-05T09:48:11.795Z,8.40
2017-12-05T09:50:38.715Z,8.40
2017-12-05T09:53:06.589Z,8.50
2017-12-05T09:55:34.523Z,8.60
2017-12-05T09:58:01.491Z,8.60
2017-12-05T10:00:28.417Z,8.70
2017-12-05T10:02:55.350Z,8.70
2017-12-05T10:05:23.036Z,8.50
2017-12-05T10:07:50.005Z,8.50
2017-12-05T10:10:16.921Z,8.60
2017-12-05T10:12:43.834Z,8.60
2017-12-05T10:15:10.762Z,8.60
2017-12-05T10:17:39.719Z,8.80
2017-12-05T10:20:06.666Z,8.80
2017-12-05T10:22:33.585Z,8.80
2017-12-05T10:25:01.422Z,8.90
2017-12-05T10:27:28.345Z,9.00
2017-12-05T10:29:55.287Z,9.00
2017-12-05T10:32:22.204Z,8.90
2017-12-05T10:34:49.145Z,8.90
2017-12-05T10:37:16.977Z,8.90
2017-12-05T10:39:44.673Z,9.10
2017-12-05T10:42:11.593Z,9.10
2017-12-05T10:44:39.284Z,9.20
2017-12-05T10:47:06.209Z,9.20
2017-12-05T10:49:33.144Z,9.30
2017-12-05T10:52:00.829Z,9.40
2017-12-05T10:54:28.659Z,9.40
2017-12-05T10:56:56.364Z,9.40
2017-12-05T10:59:23.268Z,9.40
2017-12-05T11:01:50.212Z,9.40
2017-12-05T11:04:17.898Z,9.30
2017-12-05T11:06:44.829Z,9.30
2017-12-05T11:09:12.508Z,9.30
2017-12-05T11:11:39.465Z,9.30
2017-12-05T11:14:07.309Z,9.40
2017-12-05T11:16:34.241Z,9.40
2017-12-05T11:19:03.873Z,9.40
2017-12-05T11:21:31.840Z,9.40
2017-12-05T11:23:59.709Z,9.30
2017-12-05T11:26:26.621Z,9.30
2017-12-05T11:28:54.333Z,9.20
2017-12-05T11:31:21.310Z,9.30
2017-12-05T11:33:48.236Z,9.40
2017-12-05T11:36:15.180Z,9.50
2017-12-05T11:38:42.092Z,9.40
2017-12-05T11:41:09.024Z,9.40
2017-12-05T11:43:36.849Z,9.50
2017-12-05T11:46:03.782Z,9.50
2017-12-05T11:48:30.693Z,9.50
2017-12-05T11:50:57.633Z,9.50
2017-12-05T11:53:24.560Z,9.40
2017-12-05T11:55:51.507Z,9.40
2017-12-05T11:58:19.398Z,9.40
2017-12-05T12:00:46.339Z,9.40
2017-12-05T12:03:13.258Z,9.40
2017-12-05T12:05:41.172Z,9.40
2017-12-05T12:08:09.096Z,9.40
2017-12-05T12:10:36.964Z,9.50
2017-12-05T12:13:03.914Z,9.50
2017-12-05T12:15:30.879Z,9.50
2017-12-05T12:17:57.797Z,9.50
2017-12-05T12:20:25.486Z,9.40
2017-12-05T12:22:52.424Z,9.40
2017-12-05T12:25:21.289Z,9.40
2017-12-05T12:27:48.985Z,9.50
2017-12-05T12:30:15.912Z,9.50
2017-12-05T12:32:42.841Z,9.50
2017-12-05T12:35:11.309Z,9.50
2017-12-05T12:37:39.021Z,9.50
2017-12-05T12:40:05.950Z,9.50
2017-12-05T12:42:32.889Z,9.40
2017-12-05T12:44:59.828Z,9.50
2017-12-05T12:47:26.753Z,9.40
2017-12-05T12:49:53.676Z,9.40
2017-12-05T12:52:21.620Z,9.40
2017-12-05T12:54:49.544Z,9.40
2017-12-05T12:57:17.272Z,9.40
2017-12-05T12:59:44.192Z,9.40
2017-12-05T13:02:12.132Z,9.40
2017-12-05T13:04:39.059Z,9.40
2017-12-05T13:07:06.021Z,9.30
2017-12-05T13:09:32.949Z,9.30
2017-12-05T13:12:00.637Z,9.30
2017-12-05T13:14:28.541Z,9.30
2017-12-05T13:16:55.470Z,9.30
2017-12-05T13:19:22.412Z,9.30
2017-12-05T13:21:49.344Z,9.40
2017-12-05T13:24:17.209Z,9.30
2017-12-05T13:26:44.136Z,9.30
2017-12-05T13:29:11.065Z,9.20
2017-12-05T13:31:38.754Z,9.20
2017-12-05T13:34:05.681Z,9.20
2017-12-05T13:36:32.603Z,9.10
2017-12-05T13:38:59.545Z,9.00
2017-12-05T13:41:26.469Z,9.10
2017-12-05T13:43:53.462Z,9.10
2017-12-05T13:46:21.338Z,9.10
2017-12-05T13:48:48.281Z,9.10
2017-12-05T13:51:15.204Z,9.10
2017-12-05T13:53:42.935Z,9.10
2017-12-05T13:56:09.868Z,9.10
2017-12-05T13:58:36.813Z,9.10
2017-12-05T14:01:05.741Z,9.10
2017-12-05T14:03:33.445Z,9.10
2017-12-05T14:06:00.390Z,9.10
2017-12-05T14:08:27.309Z,9.10
2017-12-05T14:10:54.322Z,9.10
2017-12-05T14:13:21.257Z,9.10
2017-12-05T14:15:50.224Z,9.10
2017-12-05T14:18:17.172Z,9.10
2017-12-05T14:20:45.154Z,9.10
2017-12-05T14:23:12.145Z,9.00
2017-12-05T14:25:40.029Z,9.00
2017-12-05T14:28:06.951Z,9.00
2017-12-05T14:30:34.721Z,9.00
2017-12-05T14:33:02.432Z,9.00
2017-12-05T14:35:29.372Z,8.90
2017-12-05T14:37:57.185Z,8.90
2017-12-05T14:40:26.133Z,8.90
2017-12-05T14:42:54.124Z,8.90
2017-12-05T14:45:21.068Z,8.80
2017-12-05T14:47:48.003Z,8.80
2017-12-05T14:50:16.624Z,8.80
2017-12-05T14:52:44.342Z,8.80
2017-12-05T14:55:11.281Z,8.70
2017-12-05T14:57:41.677Z,8.70
2017-12-05T15:00:08.601Z,8.70
2017-12-05T15:02:38.200Z,8.70
2017-12-05T15:05:05.124Z,8.70
2017-12-05T15:07:33.022Z,8.70
2017-12-05T15:09:59.956Z,8.70
2017-12-05T15:12:27.644Z,8.60
2017-12-05T15:14:54.573Z,8.70
2017-12-05T15:17:24.420Z,8.70
2017-12-05T15:19:51.343Z,8.70
2017-12-05T15:22:18.306Z,8.70
2017-12-05T15:24:46.168Z,8.70
2017-12-05T15:27:13.105Z,8.70
2017-12-05T15:29:40.066Z,8.70
2017-12-05T15:32:06.980Z,8.70
2017-12-05T15:34:35.183Z,8.70
2017-12-05T15:37:02.099Z,8.70
2017-12-05T15:39:30.797Z,8.80
2017-12-05T15:41:57.725Z,8.70
2017-12-05T15:44:24.661Z,8.60
2017-12-05T15:46:56.589Z,8.70
2017-12-05T15:49:24.473Z,8.70
2017-12-05T15:51:51.435Z,8.70
2017-12-05T15:54:18.428Z,8.70
2017-12-05T15:56:45.400Z,8.50
2017-12-05T15:59:12.943Z,8.70
2017-12-05T16:01:39.865Z,8.70
2017-12-05T16:04:07.661Z,8.70
2017-12-05T16:06:34.577Z,8.70
2017-12-05T16:09:02.530Z,8.70
2017-12-05T16:11:30.242Z,8.70
2017-12-05T16:13:58.174Z,8.70
2017-12-05T16:16:25.078Z,8.80
2017-12-05T16:18:52.021Z,8.80
2017-12-05T16:21:19.721Z,8.80
2017-12-05T16:23:47.609Z,8.80
2017-12-05T16:26:15.544Z,8.80
2017-12-05T16:28:43.254Z,8.80
2017-12-05T16:31:11.220Z,8.80
2017-12-05T16:33:38.466Z,8.80
2017-12-05T16:36:05.397Z,8.70
2017-12-05T16:38:32.352Z,8.70
2017-12-05T16:40:59.278Z,8.70
2017-12-05T16:43:26.254Z,8.70
2017-12-05T16:45:54.173Z,8.70
2017-12-05T16:48:21.914Z,8.70
2017-12-05T16:50:49.622Z,8.60
2017-12-05T16:53:16.547Z,8.60
2017-12-05T16:55:43.491Z,8.50
2017-12-05T16:58:10.429Z,8.50
2017-12-05T17:00:38.144Z,8.50
2017-12-05T17:03:07.120Z,8.50
2017-12-05T17:05:34.036Z,8.40
2017-12-05T17:08:01.758Z,8.40
2017-12-05T17:10:28.729Z,8.40
2017-12-05T17:12:59.327Z,8.30
2017-12-05T17:15:26.383Z,8.40
2017-12-05T17:17:53.321Z,8.40
2017-12-05T17:20:20.251Z,8.30
2017-12-05T17:22:47.189Z,8.20
2017-12-05T17:25:14.113Z,8.30
2017-12-05T17:27:41.024Z,8.20
2017-12-05T17:30:11.687Z,8.20
2017-12-05T17:32:38.592Z,8.10
2017-12-05T17:35:08.324Z,8.20
2017-12-05T17:37:35.248Z,8.10
2017-12-05T17:40:04.177Z,8.00
2017-12-05T17:42:31.084Z,8.00
2017-12-05T17:44:59.157Z,7.90
2017-12-05T17:47:27.058Z,8.00
2017-12-05T17:49:55.940Z,8.00
2017-12-05T17:52:22.864Z,8.10
2017-12-05T17:54:51.822Z,8.10
2017-12-05T17:57:20.657Z,8.20
2017-12-05T17:59:52.441Z,8.20
2017-12-05T18:02:23.557Z,8.20
2017-12-05T18:04:51.270Z,8.20
2017-12-05T18:07:20.254Z,8.20
2017-12-05T18:09:47.205Z,8.20
2017-12-05T18:12:18.713Z,8.30
2017-12-05T18:14:46.585Z,8.10
2017-12-05T18:17:13.496Z,8.10
2017-12-05T18:19:41.206Z,8.20
2017-12-05T18:22:08.464Z,8.10
2017-12-05T18:24:35.389Z,8.20
2017-12-05T18:27:02.319Z,8.20
2017-12-05T18:29:34.690Z,8.20
2017-12-05T18:32:02.378Z,8.20
2017-12-05T18:34:31.229Z,8.10
2017-12-05T18:36:59.115Z,8.20
2017-12-05T18:39:30.576Z,8.30
2017-12-05T18:41:59.458Z,8.20
2017-12-05T18:44:29.209Z,8.20
2017-12-05T18:46:59.337Z,8.20
2017-12-05T18:49:27.175Z,8.10
2017-12-05T18:52:04.442Z,7.90
2017-12-05T18:54:31.392Z,7.80
2017-12-05T18:56:58.316Z,7.70
2017-12-05T18:59:28.604Z,7.70
2017-12-05T19:01:57.567Z,7.70
2017-12-05T19:04:24.530Z,7.70
2017-12-05T19:06:53.383Z,7.60
2017-12-05T19:09:21.078Z,7.70
2017-12-05T19:11:49.052Z,7.60
2017-12-05T19:14:15.968Z,7.60
2017-12-05T19:16:42.901Z,7.60
2017-12-05T19:19:12.529Z,7.70
2017-12-05T19:21:39.527Z,7.70
2017-12-05T19:24:07.225Z,7.70
2017-12-05T19:26:34.173Z,7.70
2017-12-05T19:29:01.080Z,7.70
2017-12-05T19:31:28.792Z,7.80
2017-12-05T19:33:55.713Z,7.80
2017-12-05T19:36:22.725Z,7.80
2017-12-05T19:38:50.608Z,7.90
2017-12-05T19:41:17.568Z,7.90
2017-12-05T19:43:45.321Z,7.90
2017-12-05T19:46:13.141Z,7.90
2017-12-05T19:48:40.114Z,7.90
2017-12-05T19:51:07.828Z,8.00
2017-12-05T19:53:34.751Z,8.00
2017-12-05T19:56:03.450Z,8.00
2017-12-05T19:58:30.402Z,8.00
2017-12-05T20:00:57.332Z,8.00
2017-12-05T20:03:26.004Z,8.00
2017-12-05T20:05:52.929Z,8.00
2017-12-05T20:08:19.853Z,8.00
2017-12-05T20:10:46.762Z,8.10
2017-12-05T20:13:13.690Z,8.10
2017-12-05T20:15:41.374Z,8.00
2017-12-05T20:18:09.234Z,8.00
2017-12-05T20:20:36.160Z,8.00
2017-12-05T20:23:03.855Z,7.80
2017-12-05T20:25:30.762Z,7.70
2017-12-05T20:27:58.570Z,7.80
2017-12-05T20:30:25.498Z,7.80
2017-12-05T20:32:52.428Z,7.80
2017-12-05T20:35:19.349Z,7.80
2017-12-05T20:37:46.280Z,7.80
2017-12-05T20:40:13.198Z,7.80
2017-12-05T20:42:40.127Z,7.80
2017-12-05T20:45:09.015Z,7.90
2017-12-05T20:47:35.963Z,7.80
2017-12-05T20:50:03.907Z,7.80
2017-12-05T20:52:31.609Z,7.80
2017-12-05T20:54:59.537Z,7.80
2017-12-05T20:57:27.231Z,7.80
2017-12-05T20:59:55.061Z,7.80
2017-12-05T21:02:22.753Z,7.80
2017-12-05T21:04:49.682Z,7.80
2017-12-05T21:07:16.635Z,7.80
2017-12-05T21:09:43.582Z,7.70
2017-12-05T21:12:10.515Z,7.80
2017-12-05T21:14:37.441Z,8.00
2017-12-05T21:17:07.093Z,7.90
2017-12-05T21:19:34.894Z,7.90
2017-12-05T21:22:01.852Z,7.80
2017-12-05T21:24:28.769Z,7.80
2017-12-05T21:26:55.697Z,7.80
2017-12-05T21:29:23.545Z,7.80
2017-12-05T21:31:50.502Z,7.80
2017-12-05T21:34:17.431Z,7.80
2017-12-05T21:36:44.333Z,7.80
2017-12-05T21:39:11.248Z,7.80
2017-12-05T21:41:38.151Z,7.70
2017-12-05T21:44:07.851Z,7.80
2017-12-05T21:46:35.526Z,7.80
2017-12-05T21:49:02.443Z,7.80
2017-12-05T21:51:29.373Z,7.80
2017-12-05T21:53:56.372Z,7.80
2017-12-05T21:56:23.292Z,7.80
2017-12-05T21:58:50.207Z,7.80
2017-12-05T22:01:18.123Z,7.80
2017-12-05T22:03:49.152Z,7.80
2017-12-05T22:06:16.050Z,7.80
2017-12-05T22:08:43.003Z,7.80
2017-12-05T22:11:09.927Z,7.80
2017-12-05T22:13:38.775Z,7.80
2017-12-05T22:16:05.694Z,7.80
2017-12-05T22:18:32.631Z,7.80
2017-12-05T22:20:59.540Z,7.80
2017-12-05T22:23:27.468Z,7.80
2017-12-05T22:25:55.330Z,7.80
2017-12-05T22:28:22.269Z,7.80
2017-12-05T22:30:49.944Z,7.70
2017-12-05T22:33:17.637Z,7.70
2017-12-05T22:35:45.601Z,7.70
2017-12-05T22:38:12.523Z,7.70
2017-12-05T22:40:39.485Z,7.80
2017-12-05T22:43:06.420Z,7.70
2017-12-05T22:45:33.353Z,7.70
2017-12-05T22:48:00.270Z,7.70
2017-12-05T22:50:27.199Z,7.80
2017-12-05T22:52:55.104Z,7.80
2017-12-05T22:55:24.720Z,7.80
2017-12-05T22:57:52.576Z,7.80
2017-12-05T23:00:20.512Z,7.80
2017-12-05T23:02:47.417Z,7.80
2017-12-05T23:05:14.378Z,7.80
2017-12-05T23:07:42.588Z,7.80
2017-12-05T23:10:09.524Z,7.80
2017-12-05T23:12:36.485Z,7.80
2017-12-05T23:15:04.152Z,7.90
2017-12-05T23:17:34.006Z,7.90
2017-12-05T23:20:01.035Z,7.90
2017-12-05T23:22:27.946Z,7.90
2017-12-05T23:24:55.781Z,7.90
2017-12-05T23:27:22.702Z,7.90
2017-12-05T23:29:49.704Z,7.90
2017-12-05T23:32:21.117Z,7.90
2017-12-05T23:34:48.038Z,7.90
2017-12-05T23:37:14.949Z,7.90
2017-12-05T23:39:42.644Z,7.80
2017-12-05T23:42:09.589Z,7.90
2017-12-05T23:44:36.516Z,7.80
2017-12-05T23:47:03.426Z,7.80
2017-12-05T23:49:30.362Z,7.80
2017-12-05T23:51:57.313Z,7.80
2017-12-05T23:54:24.265Z,7.80
2017-12-05T23:56:51.184Z,7.80
2017-12-05T23:59:18.091Z,7.80
